»·PEaware :: STRYK11 KSAN-KTUS

STRYK11 :: KSAN-KTUS

FLIGHT INFORMATION

Flight Status: Arrived
Operator: Unknown
More flights by this operator :: More flights under this callsign
Pilot: Kevin M. (7)
Aircraft: Unknown
(F35)
More flights by this aircraft type
Origin: KSAN San Diego Intl-Lindbergh
United States
Destination: KTUS Tucson Intl
United States
More flights between these airports :: More routes between these airports
Route: ZZOOO2 IPL J2 GBN DINGO5
File this flight plan on PilotEdge
Remarks:
Altitude:
(Current/Filed)
27,000ft
Speed:
(Current/Filed)
540kts
Departed: 12-Sep-19 12:06 PM
Arrived: 12-Sep-19 12:50 PM
Distance/Time
Traveled:
318nm/0:43
Distance/Time
To Go:
Arrived

Flight Plot

Page will automatically refresh every two minutes.

Flight plan parsing failed; only flown route is shown


Map Options




Map Legend


Flown Route
Filed Route
Departure Airport
Arrival Airport
Navaid (VOR, NDB)
Fix

Horizontal Profiles

Position Reports

Time Latitude Longitude Heading Altitude Ground
Speed
12-Sep-19 11:07 32.732393 -117.176706 193 26ft 0kts
12-Sep-19 11:08 32.732393 -117.176706 193 26ft 0kts
12-Sep-19 11:09 32.732393 -117.176706 193 26ft 0kts
12-Sep-19 11:10 32.732393 -117.176706 193 26ft 0kts
12-Sep-19 11:11 32.732393 -117.176706 193 26ft 0kts
12-Sep-19 11:12 32.732393 -117.176706 193 26ft 0kts
12-Sep-19 11:13 32.732393 -117.176706 193 26ft 0kts
12-Sep-19 11:14 32.732393 -117.176706 193 26ft 0kts
12-Sep-19 11:15 32.732393 -117.176706 193 26ft 0kts
12-Sep-19 11:16 32.732393 -117.176706 193 26ft 0kts
12-Sep-19 11:17 32.732393 -117.176706 193 26ft 0kts
12-Sep-19 11:18 32.732393 -117.176706 193 26ft 0kts
12-Sep-19 11:19 32.732393 -117.176706 193 26ft 0kts
12-Sep-19 11:20 32.732393 -117.176706 193 26ft 0kts
12-Sep-19 11:21 32.732393 -117.176706 193 26ft 0kts
12-Sep-19 11:22 32.732393 -117.176706 193 26ft 0kts
12-Sep-19 11:23 32.732393 -117.176706 193 26ft 0kts
12-Sep-19 11:24 32.732393 -117.176706 193 26ft 0kts
12-Sep-19 11:25 32.732393 -117.176706 193 26ft 0kts
12-Sep-19 11:26 32.732393 -117.176706 193 26ft 0kts
12-Sep-19 11:27 32.732393 -117.176706 193 26ft 0kts
12-Sep-19 11:28 32.732393 -117.176706 193 26ft 0kts
12-Sep-19 11:29 32.732393 -117.176706 193 26ft 0kts
12-Sep-19 11:30 32.732393 -117.176706 193 26ft 0kts
12-Sep-19 11:31 32.732393 -117.176706 193 26ft 0kts
12-Sep-19 11:32 32.732393 -117.176706 193 26ft 0kts
12-Sep-19 11:33 32.732393 -117.176706 193 26ft 0kts
12-Sep-19 11:34 32.732393 -117.176706 193 26ft 0kts
12-Sep-19 11:35 32.732393 -117.176706 193 26ft 0kts
12-Sep-19 11:36 32.732393 -117.176706 193 26ft 0kts
12-Sep-19 11:37 32.732393 -117.176706 193 26ft 0kts
12-Sep-19 11:38 32.732393 -117.176706 193 26ft 0kts
12-Sep-19 11:39 32.732393 -117.176706 193 26ft 0kts
12-Sep-19 11:40 32.732393 -117.176706 193 26ft 0kts
12-Sep-19 11:41 32.732393 -117.176706 193 26ft 0kts
12-Sep-19 11:42 32.732393 -117.176706 193 26ft 0kts
12-Sep-19 11:43 32.732393 -117.176706 193 26ft 0kts
12-Sep-19 11:44 32.732393 -117.176706 193 26ft 0kts
12-Sep-19 11:45 32.732393 -117.176706 193 26ft 0kts
12-Sep-19 11:46 32.732393 -117.176706 193 26ft 0kts
12-Sep-19 11:47 32.732393 -117.176706 193 26ft 0kts
12-Sep-19 11:48 32.731454 -117.176336 124 26ft 20kts
12-Sep-19 11:49 32.731367 -117.176166 117 26ft 0kts
12-Sep-19 11:50 32.731367 -117.176166 117 26ft 0kts
12-Sep-19 11:51 32.731367 -117.176166 117 26ft 0kts
12-Sep-19 11:52 32.731367 -117.176166 117 26ft 0kts
12-Sep-19 11:53 32.731367 -117.176166 117 26ft 0kts
12-Sep-19 11:54 32.731367 -117.176166 117 26ft 0kts
12-Sep-19 11:55 32.731367 -117.176166 117 26ft 0kts
12-Sep-19 11:56 32.731367 -117.176166 117 26ft 0kts
12-Sep-19 11:57 32.731367 -117.176166 117 26ft 0kts
12-Sep-19 11:58 32.731367 -117.176166 117 26ft 0kts
12-Sep-19 11:59 32.731367 -117.176166 117 26ft 0kts
12-Sep-19 12:00 32.731367 -117.176166 117 26ft 0kts
12-Sep-19 12:01 32.731367 -117.176166 117 26ft 0kts
12-Sep-19 12:02 32.731367 -117.176166 117 26ft 0kts
12-Sep-19 12:03 32.731353 -117.176136 117 26ft 4kts
12-Sep-19 12:04 32.731045 -117.175612 146 26ft 0kts
12-Sep-19 12:05 32.732082 -117.183421 286 205ft 182kts
12-Sep-19 12:07 32.743674 -117.232829 283 12025ft 208kts
12-Sep-19 12:08 32.746942 -117.302793 228 12876ft 375kts
12-Sep-19 12:09 32.617225 -117.326452 143 21251ft 448kts
12-Sep-19 12:10 32.624442 -117.199692 90 23207ft 487kts
12-Sep-19 12:11 32.608273 -117.023152 95 26893ft 577kts
12-Sep-19 12:12 32.618758 -116.831459 75 27011ft 596kts
12-Sep-19 12:13 32.643589 -116.637025 84 27009ft 597kts
12-Sep-19 12:14 32.662621 -116.440783 84 27009ft 597kts
12-Sep-19 12:15 32.681362 -116.244024 84 26985ft 599kts
12-Sep-19 12:16 32.699844 -116.046618 84 26964ft 600kts
12-Sep-19 12:17 32.718107 -115.849226 84 26964ft 600kts
12-Sep-19 12:18 32.736119 -115.651170 84 26964ft 600kts
12-Sep-19 12:19 32.750042 -115.454068 88 26958ft 599kts
12-Sep-19 12:20 32.754924 -115.255457 89 26959ft 599kts
12-Sep-19 12:21 32.759306 -115.057145 89 26964ft 599kts
12-Sep-19 12:22 32.763346 -114.859398 89 26959ft 598kts
12-Sep-19 12:23 32.767077 -114.661803 89 26947ft 599kts
12-Sep-19 12:24 32.770107 -114.463908 90 26953ft 599kts
12-Sep-19 12:25 32.772657 -114.265523 90 26955ft 599kts
12-Sep-19 12:26 32.774896 -114.067812 90 26955ft 599kts
12-Sep-19 12:26 32.786005 -113.903132 82 26953ft 603kts
12-Sep-19 12:28 32.818669 -113.673224 81 26949ft 604kts
12-Sep-19 12:28 32.841804 -113.509451 81 26955ft 604kts
12-Sep-19 12:29 32.869349 -113.312390 82 26955ft 604kts
12-Sep-19 12:31 32.901109 -113.082152 82 26955ft 604kts
12-Sep-19 12:31 32.923521 -112.917732 82 26956ft 607kts
12-Sep-19 12:32 32.949795 -112.718673 85 26952ft 610kts
12-Sep-19 12:34 32.889251 -112.506245 117 26981ft 600kts
12-Sep-19 12:34 32.833212 -112.354581 115 26961ft 601kts
12-Sep-19 12:35 32.763032 -112.173511 116 26620ft 605kts
12-Sep-19 12:36 32.692784 -111.993198 116 23845ft 589kts
12-Sep-19 12:37 32.625134 -111.820458 115 21087ft 568kts
12-Sep-19 12:38 32.559356 -111.653348 115 18257ft 546kts
12-Sep-19 12:39 32.477956 -111.506620 119 15427ft 520kts
12-Sep-19 12:40 32.410465 -111.365066 119 13565ft 458kts
12-Sep-19 12:41 32.346025 -111.250913 123 13049ft 387kts
12-Sep-19 12:42 32.288912 -111.150712 129 9476ft 295kts
12-Sep-19 12:43 32.242342 -111.089063 133 7139ft 242kts
12-Sep-19 12:44 32.196403 -111.034698 135 5040ft 236kts
12-Sep-19 12:45 32.151172 -110.980741 134 3477ft 216kts
12-Sep-19 12:46 32.114544 -110.937533 133 2613ft 150kts
12-Sep-19 12:47 32.110082 -110.929828 313 2630ft 55kts
12-Sep-19 12:48 32.119415 -110.940890 313 2600ft 41kts
12-Sep-19 12:49 32.124617 -110.945852 54 2580ft 0kts
12-Sep-19 12:50 32.124646 -110.945804 54 2580ft 0kts

Navigation Log

Ident Type
Flight plan parsing failed, navigation log unavailable